sensor_id;sensor_type;location;lat;lon;timestamp;P1;durP1;ratioP1;P2;durP2;ratioP2
18320;SDS011;54904;54.350;18.664;2024-03-29T00:00:58;2.73;;;2.20;;
18320;SDS011;54904;54.350;18.664;2024-03-29T00:03:26;4.17;;;1.83;;
18320;SDS011;54904;54.350;18.664;2024-03-29T00:05:52;2.43;;;1.90;;
18320;SDS011;54904;54.350;18.664;2024-03-29T00:08:18;3.33;;;2.00;;
18320;SDS011;54904;54.350;18.664;2024-03-29T00:10:46;3.07;;;1.87;;
18320;SDS011;54904;54.350;18.664;2024-03-29T00:13:12;2.50;;;1.97;;
18320;SDS011;54904;54.350;18.664;2024-03-29T00:15:38;2.00;;;1.80;;
18320;SDS011;54904;54.350;18.664;2024-03-29T00:18:06;2.73;;;1.60;;
18320;SDS011;54904;54.350;18.664;2024-03-29T00:20:33;1.70;;;1.57;;
18320;SDS011;54904;54.350;18.664;2024-03-29T00:23:00;1.70;;;1.60;;
18320;SDS011;54904;54.350;18.664;2024-03-29T00:25:44;1.63;;;1.53;;
18320;SDS011;54904;54.350;18.664;2024-03-29T00:28:11;2.73;;;1.47;;
18320;SDS011;54904;54.350;18.664;2024-03-29T00:30:37;1.63;;;1.53;;
18320;SDS011;54904;54.350;18.664;2024-03-29T00:33:03;2.33;;;1.93;;
18320;SDS011;54904;54.350;18.664;2024-03-29T00:35:49;2.07;;;1.50;;
18320;SDS011;54904;54.350;18.664;2024-03-29T00:38:15;2.50;;;1.70;;
18320;SDS011;54904;54.350;18.664;2024-03-29T00:40:42;1.70;;;1.50;;
18320;SDS011;54904;54.350;18.664;2024-03-29T00:43:08;1.50;;;1.33;;
18320;SDS011;54904;54.350;18.664;2024-03-29T00:45:34;1.40;;;1.30;;
18320;SDS011;54904;54.350;18.664;2024-03-29T00:48:00;1.90;;;1.20;;
18320;SDS011;54904;54.350;18.664;2024-03-29T00:50:26;1.20;;;1.10;;
18320;SDS011;54904;54.350;18.664;2024-03-29T00:52:54;1.30;;;1.20;;
18320;SDS011;54904;54.350;18.664;2024-03-29T00:55:20;1.40;;;1.30;;
18320;SDS011;54904;54.350;18.664;2024-03-29T00:57:46;2.03;;;1.70;;
18320;SDS011;54904;54.350;18.664;2024-03-29T01:00:12;2.17;;;1.73;;
18320;SDS011;54904;54.350;18.664;2024-03-29T01:02:39;1.40;;;1.30;;
18320;SDS011;54904;54.350;18.664;2024-03-29T01:05:05;1.30;;;1.20;;
18320;SDS011;54904;54.350;18.664;2024-03-29T01:07:32;4.37;;;1.73;;
18320;SDS011;54904;54.350;18.664;2024-03-29T01:10:00;2.10;;;1.50;;
18320;SDS011;54904;54.350;18.664;2024-03-29T01:12:26;1.50;;;1.40;;
18320;SDS011;54904;54.350;18.664;2024-03-29T01:14:52;2.00;;;1.50;;
18320;SDS011;54904;54.350;18.664;2024-03-29T01:17:19;3.03;;;1.63;;
18320;SDS011;54904;54.350;18.664;2024-03-29T01:19:46;1.80;;;1.70;;
18320;SDS011;54904;54.350;18.664;2024-03-29T01:24:57;1.83;;;1.60;;
18320;SDS011;54904;54.350;18.664;2024-03-29T01:27:24;4.97;;;1.70;;
18320;SDS011;54904;54.350;18.664;2024-03-29T01:29:50;1.33;;;1.23;;
18320;SDS011;54904;54.350;18.664;2024-03-29T01:32:17;0.97;;;0.90;;
18320;SDS011;54904;54.350;18.664;2024-03-29T01:34:43;1.30;;;1.20;;
18320;SDS011;54904;54.350;18.664;2024-03-29T01:37:09;1.43;;;0.97;;
18320;SDS011;54904;54.350;18.664;2024-03-29T01:39:35;2.10;;;1.30;;
18320;SDS011;54904;54.350;18.664;2024-03-29T01:42:01;1.10;;;1.00;;
18320;SDS011;54904;54.350;18.664;2024-03-29T01:44:29;1.10;;;1.00;;
18320;SDS011;54904;54.350;18.664;2024-03-29T01:46:56;1.10;;;1.10;;
18320;SDS011;54904;54.350;18.664;2024-03-29T01:49:23;1.10;;;1.00;;
18320;SDS011;54904;54.350;18.664;2024-03-29T01:51:51;1.07;;;1.03;;
18320;SDS011;54904;54.350;18.664;2024-03-29T01:54:18;0.80;;;0.80;;
18320;SDS011;54904;54.350;18.664;2024-03-29T01:56:46;1.10;;;1.00;;
18320;SDS011;54904;54.350;18.664;2024-03-29T01:59:14;1.43;;;1.23;;
18320;SDS011;54904;54.350;18.664;2024-03-29T02:01:44;1.50;;;1.23;;
18320;SDS011;54904;54.350;18.664;2024-03-29T02:04:12;1.33;;;1.00;;
18320;SDS011;54904;54.350;18.664;2024-03-29T02:06:39;0.90;;;0.90;;
18320;SDS011;54904;54.350;18.664;2024-03-29T02:11:52;2.30;;;1.10;;
18320;SDS011;54904;54.350;18.664;2024-03-29T02:14:19;0.70;;;0.70;;
18320;SDS011;54904;54.350;18.664;2024-03-29T02:19:34;1.43;;;1.07;;
18320;SDS011;54904;54.350;18.664;2024-03-29T02:22:01;0.80;;;0.80;;
18320;SDS011;54904;54.350;18.664;2024-03-29T02:24:33;1.00;;;0.90;;
18320;SDS011;54904;54.350;18.664;2024-03-29T02:27:00;0.70;;;0.70;;
18320;SDS011;54904;54.350;18.664;2024-03-29T02:29:46;0.60;;;0.60;;
18320;SDS011;54904;54.350;18.664;2024-03-29T02:32:13;0.70;;;0.70;;
18320;SDS011;54904;54.350;18.664;2024-03-29T02:34:40;0.80;;;0.80;;
18320;SDS011;54904;54.350;18.664;2024-03-29T02:37:07;0.83;;;0.83;;
18320;SDS011;54904;54.350;18.664;2024-03-29T02:39:36;0.70;;;0.70;;
18320;SDS011;54904;54.350;18.664;2024-03-29T02:42:03;0.80;;;0.80;;
18320;SDS011;54904;54.350;18.664;2024-03-29T02:44:30;0.63;;;0.63;;
18320;SDS011;54904;54.350;18.664;2024-03-29T02:46:57;0.70;;;0.70;;
18320;SDS011;54904;54.350;18.664;2024-03-29T02:49:25;0.73;;;0.73;;
18320;SDS011;54904;54.350;18.664;2024-03-29T02:51:51;0.90;;;0.90;;
18320;SDS011;54904;54.350;18.664;2024-03-29T02:54:18;1.20;;;1.10;;
18320;SDS011;54904;54.350;18.664;2024-03-29T02:56:46;1.00;;;1.00;;
18320;SDS011;54904;54.350;18.664;2024-03-29T02:59:13;1.23;;;0.80;;
18320;SDS011;54904;54.350;18.664;2024-03-29T03:01:40;1.70;;;1.13;;
18320;SDS011;54904;54.350;18.664;2024-03-29T03:04:06;1.10;;;1.00;;
18320;SDS011;54904;54.350;18.664;2024-03-29T03:06:33;3.70;;;1.17;;
18320;SDS011;54904;54.350;18.664;2024-03-29T03:08:59;0.93;;;0.93;;
18320;SDS011;54904;54.350;18.664;2024-03-29T03:11:43;1.20;;;1.10;;
18320;SDS011;54904;54.350;18.664;2024-03-29T03:14:12;1.30;;;1.13;;
18320;SDS011;54904;54.350;18.664;2024-03-29T03:16:58;1.20;;;1.10;;
18320;SDS011;54904;54.350;18.664;2024-03-29T03:19:24;2.47;;;1.60;;
18320;SDS011;54904;54.350;18.664;2024-03-29T03:21:51;1.87;;;1.60;;
18320;SDS011;54904;54.350;18.664;2024-03-29T03:24:17;3.37;;;2.67;;
18320;SDS011;54904;54.350;18.664;2024-03-29T03:26:44;3.20;;;2.90;;
18320;SDS011;54904;54.350;18.664;2024-03-29T03:29:12;3.37;;;2.63;;
18320;SDS011;54904;54.350;18.664;2024-03-29T03:31:39;2.30;;;2.10;;
18320;SDS011;54904;54.350;18.664;2024-03-29T03:34:05;2.03;;;1.93;;
18320;SDS011;54904;54.350;18.664;2024-03-29T03:36:32;4.23;;;1.93;;
18320;SDS011;54904;54.350;18.664;2024-03-29T03:38:58;2.10;;;1.73;;
18320;SDS011;54904;54.350;18.664;2024-03-29T03:41:25;3.07;;;1.93;;
18320;SDS011;54904;54.350;18.664;2024-03-29T03:43:51;2.60;;;1.90;;
18320;SDS011;54904;54.350;18.664;2024-03-29T03:46:20;2.37;;;1.90;;
18320;SDS011;54904;54.350;18.664;2024-03-29T03:48:46;3.30;;;1.80;;
18320;SDS011;54904;54.350;18.664;2024-03-29T03:51:13;2.57;;;1.60;;
18320;SDS011;54904;54.350;18.664;2024-03-29T03:53:39;2.37;;;2.17;;
18320;SDS011;54904;54.350;18.664;2024-03-29T03:56:06;2.80;;;2.30;;
18320;SDS011;54904;54.350;18.664;2024-03-29T03:58:32;3.23;;;1.93;;
18320;SDS011;54904;54.350;18.664;2024-03-29T04:01:03;3.77;;;2.10;;
18320;SDS011;54904;54.350;18.664;2024-03-29T04:03:31;3.53;;;2.03;;
18320;SDS011;54904;54.350;18.664;2024-03-29T04:05:58;2.67;;;1.97;;
18320;SDS011;54904;54.350;18.664;2024-03-29T04:08:28;1.97;;;1.57;;
18320;SDS011;54904;54.350;18.664;2024-03-29T04:10:55;2.97;;;1.60;;
18320;SDS011;54904;54.350;18.664;2024-03-29T04:13:41;3.17;;;1.40;;
18320;SDS011;54904;54.350;18.664;2024-03-29T04:16:09;2.20;;;1.20;;
18320;SDS011;54904;54.350;18.664;2024-03-29T04:18:36;2.80;;;1.43;;
18320;SDS011;54904;54.350;18.664;2024-03-29T04:21:03;1.50;;;1.40;;
18320;SDS011;54904;54.350;18.664;2024-03-29T04:23:30;1.23;;;1.13;;
18320;SDS011;54904;54.350;18.664;2024-03-29T04:25:58;2.00;;;1.80;;
18320;SDS011;54904;54.350;18.664;2024-03-29T04:28:43;3.43;;;1.70;;
18320;SDS011;54904;54.350;18.664;2024-03-29T04:31:10;1.70;;;1.57;;
18320;SDS011;54904;54.350;18.664;2024-03-29T04:33:38;1.10;;;1.03;;
18320;SDS011;54904;54.350;18.664;2024-03-29T04:36:06;1.97;;;1.60;;
18320;SDS011;54904;54.350;18.664;2024-03-29T04:38:32;1.50;;;1.40;;
18320;SDS011;54904;54.350;18.664;2024-03-29T04:41:00;1.20;;;1.10;;
18320;SDS011;54904;54.350;18.664;2024-03-29T04:43:27;1.33;;;1.23;;
18320;SDS011;54904;54.350;18.664;2024-03-29T04:46:01;1.50;;;1.10;;
18320;SDS011;54904;54.350;18.664;2024-03-29T04:48:30;1.60;;;1.50;;
18320;SDS011;54904;54.350;18.664;2024-03-29T04:53:45;1.33;;;1.10;;
18320;SDS011;54904;54.350;18.664;2024-03-29T04:56:12;1.93;;;1.43;;
18320;SDS011;54904;54.350;18.664;2024-03-29T04:58:39;1.43;;;1.33;;
18320;SDS011;54904;54.350;18.664;2024-03-29T05:01:06;3.30;;;1.43;;
18320;SDS011;54904;54.350;18.664;2024-03-29T05:03:33;2.20;;;1.90;;
18320;SDS011;54904;54.350;18.664;2024-03-29T05:06:00;3.00;;;2.10;;
18320;SDS011;54904;54.350;18.664;2024-03-29T05:08:29;2.03;;;1.60;;
18320;SDS011;54904;54.350;18.664;2024-03-29T05:10:56;1.60;;;1.50;;
18320;SDS011;54904;54.350;18.664;2024-03-29T05:13:23;1.87;;;1.67;;
18320;SDS011;54904;54.350;18.664;2024-03-29T05:15:50;3.00;;;1.50;;
18320;SDS011;54904;54.350;18.664;2024-03-29T05:18:17;2.90;;;1.80;;
18320;SDS011;54904;54.350;18.664;2024-03-29T05:20:45;3.03;;;1.70;;
18320;SDS011;54904;54.350;18.664;2024-03-29T05:23:16;2.07;;;1.70;;
18320;SDS011;54904;54.350;18.664;2024-03-29T05:25:44;2.97;;;1.50;;
18320;SDS011;54904;54.350;18.664;2024-03-29T05:28:13;5.47;;;2.20;;
18320;SDS011;54904;54.350;18.664;2024-03-29T05:31:08;2.60;;;1.50;;
18320;SDS011;54904;54.350;18.664;2024-03-29T05:33:38;2.00;;;1.63;;
18320;SDS011;54904;54.350;18.664;2024-03-29T05:36:05;2.23;;;1.40;;
18320;SDS011;54904;54.350;18.664;2024-03-29T05:38:35;3.43;;;1.50;;
18320;SDS011;54904;54.350;18.664;2024-03-29T05:41:04;2.13;;;1.50;;
18320;SDS011;54904;54.350;18.664;2024-03-29T05:43:31;2.33;;;1.30;;
18320;SDS011;54904;54.350;18.664;2024-03-29T05:45:58;1.40;;;1.30;;
18320;SDS011;54904;54.350;18.664;2024-03-29T05:48:45;1.40;;;1.30;;
18320;SDS011;54904;54.350;18.664;2024-03-29T05:51:12;0.90;;;0.90;;
18320;SDS011;54904;54.350;18.664;2024-03-29T05:53:40;1.60;;;1.03;;
18320;SDS011;54904;54.350;18.664;2024-03-29T05:56:08;3.37;;;0.93;;
18320;SDS011;54904;54.350;18.664;2024-03-29T05:58:36;1.10;;;1.00;;
18320;SDS011;54904;54.350;18.664;2024-03-29T06:01:03;1.00;;;1.00;;
18320;SDS011;54904;54.350;18.664;2024-03-29T06:03:30;1.37;;;1.00;;
18320;SDS011;54904;54.350;18.664;2024-03-29T06:05:57;1.83;;;1.30;;
18320;SDS011;54904;54.350;18.664;2024-03-29T06:08:25;2.30;;;1.33;;
18320;SDS011;54904;54.350;18.664;2024-03-29T06:10:52;1.23;;;1.13;;
18320;SDS011;54904;54.350;18.664;2024-03-29T06:13:21;2.70;;;1.50;;
18320;SDS011;54904;54.350;18.664;2024-03-29T06:16:02;1.50;;;1.00;;
18320;SDS011;54904;54.350;18.664;2024-03-29T06:18:46;1.90;;;1.23;;
18320;SDS011;54904;54.350;18.664;2024-03-29T06:21:14;4.20;;;1.50;;
18320;SDS011;54904;54.350;18.664;2024-03-29T06:23:41;1.10;;;1.00;;
18320;SDS011;54904;54.350;18.664;2024-03-29T06:26:08;1.57;;;0.90;;
18320;SDS011;54904;54.350;18.664;2024-03-29T06:28:36;2.23;;;1.10;;
18320;SDS011;54904;54.350;18.664;2024-03-29T06:31:03;2.23;;;1.20;;
18320;SDS011;54904;54.350;18.664;2024-03-29T06:33:31;1.27;;;0.90;;
18320;SDS011;54904;54.350;18.664;2024-03-29T06:35:58;3.60;;;1.20;;
18320;SDS011;54904;54.350;18.664;2024-03-29T06:38:42;1.57;;;1.03;;
18320;SDS011;54904;54.350;18.664;2024-03-29T06:41:09;1.03;;;1.00;;
18320;SDS011;54904;54.350;18.664;2024-03-29T06:43:40;1.83;;;1.33;;
18320;SDS011;54904;54.350;18.664;2024-03-29T06:46:09;2.83;;;1.20;;
18320;SDS011;54904;54.350;18.664;2024-03-29T06:48:36;1.37;;;1.27;;
18320;SDS011;54904;54.350;18.664;2024-03-29T06:51:03;3.43;;;1.50;;
18320;SDS011;54904;54.350;18.664;2024-03-29T06:53:30;1.10;;;1.00;;
18320;SDS011;54904;54.350;18.664;2024-03-29T06:55:59;3.33;;;1.07;;
18320;SDS011;54904;54.350;18.664;2024-03-29T06:58:26;2.97;;;1.20;;
18320;SDS011;54904;54.350;18.664;2024-03-29T07:00:55;2.77;;;1.07;;
18320;SDS011;54904;54.350;18.664;2024-03-29T07:03:24;1.90;;;0.97;;
18320;SDS011;54904;54.350;18.664;2024-03-29T07:05:51;1.20;;;1.07;;
18320;SDS011;54904;54.350;18.664;2024-03-29T07:08:18;1.13;;;1.03;;
18320;SDS011;54904;54.350;18.664;2024-03-29T07:10:45;3.33;;;1.00;;
18320;SDS011;54904;54.350;18.664;2024-03-29T07:13:12;1.03;;;0.93;;
18320;SDS011;54904;54.350;18.664;2024-03-29T07:15:39;1.43;;;1.20;;
18320;SDS011;54904;54.350;18.664;2024-03-29T07:20:54;4.70;;;1.30;;
18320;SDS011;54904;54.350;18.664;2024-03-29T07:23:21;1.63;;;1.30;;
18320;SDS011;54904;54.350;18.664;2024-03-29T07:25:57;2.03;;;0.87;;
18320;SDS011;54904;54.350;18.664;2024-03-29T07:28:25;1.10;;;0.93;;
18320;SDS011;54904;54.350;18.664;2024-03-29T07:30:52;1.47;;;0.93;;
18320;SDS011;54904;54.350;18.664;2024-03-29T07:33:20;1.27;;;0.90;;
18320;SDS011;54904;54.350;18.664;2024-03-29T07:35:50;0.90;;;0.90;;
18320;SDS011;54904;54.350;18.664;2024-03-29T07:38:17;1.57;;;1.03;;
18320;SDS011;54904;54.350;18.664;2024-03-29T07:40:45;2.13;;;1.03;;
18320;SDS011;54904;54.350;18.664;2024-03-29T07:43:13;1.60;;;1.13;;
18320;SDS011;54904;54.350;18.664;2024-03-29T07:45:40;2.27;;;1.37;;
18320;SDS011;54904;54.350;18.664;2024-03-29T07:48:10;3.80;;;1.20;;
18320;SDS011;54904;54.350;18.664;2024-03-29T07:50:38;1.53;;;1.03;;
18320;SDS011;54904;54.350;18.664;2024-03-29T07:53:07;2.97;;;1.30;;
18320;SDS011;54904;54.350;18.664;2024-03-29T07:55:35;5.70;;;1.40;;
18320;SDS011;54904;54.350;18.664;2024-03-29T07:58:03;1.00;;;1.00;;
18320;SDS011;54904;54.350;18.664;2024-03-29T08:00:31;1.93;;;1.07;;
18320;SDS011;54904;54.350;18.664;2024-03-29T08:02:59;1.77;;;1.13;;
18320;SDS011;54904;54.350;18.664;2024-03-29T08:05:26;1.37;;;1.20;;
18320;SDS011;54904;54.350;18.664;2024-03-29T08:07:54;2.67;;;1.23;;
18320;SDS011;54904;54.350;18.664;2024-03-29T08:10:22;2.20;;;1.33;;
18320;SDS011;54904;54.350;18.664;2024-03-29T08:12:50;1.63;;;1.00;;
18320;SDS011;54904;54.350;18.664;2024-03-29T08:15:17;0.80;;;0.80;;
18320;SDS011;54904;54.350;18.664;2024-03-29T08:17:45;1.43;;;0.93;;
18320;SDS011;54904;54.350;18.664;2024-03-29T08:20:13;0.77;;;0.77;;
18320;SDS011;54904;54.350;18.664;2024-03-29T08:22:40;0.90;;;0.80;;
18320;SDS011;54904;54.350;18.664;2024-03-29T08:25:08;1.70;;;1.07;;
18320;SDS011;54904;54.350;18.664;2024-03-29T08:27:37;0.70;;;0.70;;
18320;SDS011;54904;54.350;18.664;2024-03-29T08:30:04;1.50;;;1.00;;
18320;SDS011;54904;54.350;18.664;2024-03-29T08:32:32;1.37;;;1.27;;
18320;SDS011;54904;54.350;18.664;2024-03-29T08:34:59;2.22;;;1.20;;
18320;SDS011;54904;54.350;18.664;2024-03-29T08:37:27;1.93;;;1.30;;
18320;SDS011;54904;54.350;18.664;2024-03-29T08:39:55;1.05;;;0.93;;
18320;SDS011;54904;54.350;18.664;2024-03-29T08:42:22;1.45;;;0.90;;
18320;SDS011;54904;54.350;18.664;2024-03-29T08:44:51;3.40;;;1.00;;
18320;SDS011;54904;54.350;18.664;2024-03-29T08:50:04;1.13;;;0.95;;
18320;SDS011;54904;54.350;18.664;2024-03-29T08:52:31;3.80;;;1.20;;
18320;SDS011;54904;54.350;18.664;2024-03-29T08:54:58;1.05;;;0.73;;
18320;SDS011;54904;54.350;18.664;2024-03-29T08:57:25;0.93;;;0.68;;
18320;SDS011;54904;54.350;18.664;2024-03-29T08:59:54;1.67;;;0.98;;
18320;SDS011;54904;54.350;18.664;2024-03-29T09:02:21;1.15;;;1.05;;
18320;SDS011;54904;54.350;18.664;2024-03-29T09:04:49;1.25;;;1.10;;
18320;SDS011;54904;54.350;18.664;2024-03-29T09:07:16;0.90;;;0.90;;
18320;SDS011;54904;54.350;18.664;2024-03-29T09:09:43;1.55;;;1.10;;
18320;SDS011;54904;54.350;18.664;2024-03-29T09:12:10;3.13;;;1.20;;
18320;SDS011;54904;54.350;18.664;2024-03-29T09:14:37;0.80;;;0.80;;
18320;SDS011;54904;54.350;18.664;2024-03-29T09:17:06;1.55;;;0.93;;
18320;SDS011;54904;54.350;18.664;2024-03-29T09:19:35;2.22;;;1.38;;
18320;SDS011;54904;54.350;18.664;2024-03-29T09:22:02;2.92;;;1.33;;
18320;SDS011;54904;54.350;18.664;2024-03-29T09:24:30;1.23;;;1.13;;
18320;SDS011;54904;54.350;18.664;2024-03-29T09:26:59;1.10;;;1.00;;
18320;SDS011;54904;54.350;18.664;2024-03-29T09:29:26;0.93;;;0.93;;
18320;SDS011;54904;54.350;18.664;2024-03-29T09:31:53;1.27;;;1.13;;
18320;SDS011;54904;54.350;18.664;2024-03-29T09:34:41;1.10;;;1.00;;
18320;SDS011;54904;54.350;18.664;2024-03-29T09:37:08;2.55;;;1.20;;
18320;SDS011;54904;54.350;18.664;2024-03-29T09:39:35;3.22;;;0.90;;
18320;SDS011;54904;54.350;18.664;2024-03-29T09:42:02;3.60;;;0.85;;
18320;SDS011;54904;54.350;18.664;2024-03-29T09:44:31;2.13;;;1.00;;
18320;SDS011;54904;54.350;18.664;2024-03-29T09:47:02;4.10;;;1.35;;
18320;SDS011;54904;54.350;18.664;2024-03-29T09:49:30;2.45;;;0.95;;
18320;SDS011;54904;54.350;18.664;2024-03-29T09:51:59;0.90;;;0.90;;
18320;SDS011;54904;54.350;18.664;2024-03-29T09:54:27;1.20;;;1.05;;
18320;SDS011;54904;54.350;18.664;2024-03-29T09:56:55;3.10;;;0.90;;
18320;SDS011;54904;54.350;18.664;2024-03-29T10:02:11;2.63;;;1.30;;
18320;SDS011;54904;54.350;18.664;2024-03-29T10:04:42;1.48;;;0.93;;
18320;SDS011;54904;54.350;18.664;2024-03-29T10:07:12;4.40;;;0.80;;
18320;SDS011;54904;54.350;18.664;2024-03-29T10:09:40;1.05;;;1.00;;
18320;SDS011;54904;54.350;18.664;2024-03-29T10:12:09;2.35;;;1.13;;
18320;SDS011;54904;54.350;18.664;2024-03-29T10:14:45;3.63;;;1.27;;
18320;SDS011;54904;54.350;18.664;2024-03-29T10:17:33;1.58;;;1.02;;
18320;SDS011;54904;54.350;18.664;2024-03-29T10:20:18;1.20;;;0.90;;
18320;SDS011;54904;54.350;18.664;2024-03-29T10:22:49;2.08;;;1.15;;
18320;SDS011;54904;54.350;18.664;2024-03-29T10:25:16;1.25;;;1.00;;
18320;SDS011;54904;54.350;18.664;2024-03-29T10:27:45;0.95;;;0.90;;
18320;SDS011;54904;54.350;18.664;2024-03-29T10:30:12;3.42;;;0.90;;
18320;SDS011;54904;54.350;18.664;2024-03-29T10:32:42;2.67;;;1.00;;
18320;SDS011;54904;54.350;18.664;2024-03-29T10:35:10;4.30;;;1.20;;
18320;SDS011;54904;54.350;18.664;2024-03-29T10:37:37;1.35;;;1.00;;
18320;SDS011;54904;54.350;18.664;2024-03-29T10:40:08;3.05;;;0.93;;
18320;SDS011;54904;54.350;18.664;2024-03-29T10:42:40;1.30;;;1.20;;
18320;SDS011;54904;54.350;18.664;2024-03-29T10:45:08;2.33;;;1.10;;
18320;SDS011;54904;54.350;18.664;2024-03-29T10:47:35;1.17;;;0.90;;
18320;SDS011;54904;54.350;18.664;2024-03-29T10:50:03;1.50;;;1.10;;
18320;SDS011;54904;54.350;18.664;2024-03-29T10:52:31;0.82;;;0.82;;
18320;SDS011;54904;54.350;18.664;2024-03-29T10:55:00;1.15;;;1.08;;
18320;SDS011;54904;54.350;18.664;2024-03-29T10:57:29;2.28;;;0.90;;
18320;SDS011;54904;54.350;18.664;2024-03-29T11:00:00;0.82;;;0.82;;
18320;SDS011;54904;54.350;18.664;2024-03-29T11:02:34;1.00;;;1.00;;
18320;SDS011;54904;54.350;18.664;2024-03-29T11:05:10;1.25;;;1.00;;
18320;SDS011;54904;54.350;18.664;2024-03-29T11:07:39;4.35;;;1.27;;
18320;SDS011;54904;54.350;18.664;2024-03-29T11:10:10;2.63;;;1.02;;
18320;SDS011;54904;54.350;18.664;2024-03-29T11:12:45;2.78;;;0.95;;
18320;SDS011;54904;54.350;18.664;2024-03-29T11:15:22;1.23;;;0.90;;
18320;SDS011;54904;54.350;18.664;2024-03-29T11:17:55;2.88;;;1.10;;
18320;SDS011;54904;54.350;18.664;2024-03-29T11:20:23;1.90;;;0.95;;
18320;SDS011;54904;54.350;18.664;2024-03-29T11:22:59;0.95;;;0.88;;
18320;SDS011;54904;54.350;18.664;2024-03-29T11:25:40;1.13;;;0.90;;
18320;SDS011;54904;54.350;18.664;2024-03-29T11:28:10;1.33;;;0.90;;
18320;SDS011;54904;54.350;18.664;2024-03-29T11:30:45;1.48;;;0.82;;
18320;SDS011;54904;54.350;18.664;2024-03-29T11:35:59;0.73;;;0.73;;
18320;SDS011;54904;54.350;18.664;2024-03-29T11:38:30;1.33;;;0.88;;
18320;SDS011;54904;54.350;18.664;2024-03-29T11:41:05;1.70;;;1.10;;
18320;SDS011;54904;54.350;18.664;2024-03-29T11:43:34;1.17;;;1.08;;
18320;SDS011;54904;54.350;18.664;2024-03-29T11:46:04;2.25;;;0.80;;
18320;SDS011;54904;54.350;18.664;2024-03-29T11:48:33;2.47;;;0.90;;
18320;SDS011;54904;54.350;18.664;2024-03-29T11:51:01;2.05;;;0.90;;
18320;SDS011;54904;54.350;18.664;2024-03-29T11:53:29;1.20;;;0.90;;
18320;SDS011;54904;54.350;18.664;2024-03-29T11:55:57;8.55;;;1.42;;
18320;SDS011;54904;54.350;18.664;2024-03-29T11:58:25;4.47;;;0.90;;
18320;SDS011;54904;54.350;18.664;2024-03-29T12:00:55;3.15;;;1.00;;
18320;SDS011;54904;54.350;18.664;2024-03-29T12:03:24;1.00;;;1.00;;
18320;SDS011;54904;54.350;18.664;2024-03-29T12:05:52;2.83;;;1.00;;
18320;SDS011;54904;54.350;18.664;2024-03-29T12:08:23;1.10;;;1.00;;
18320;SDS011;54904;54.350;18.664;2024-03-29T12:10:52;2.45;;;1.02;;
18320;SDS011;54904;54.350;18.664;2024-03-29T12:13:19;3.17;;;1.30;;
18320;SDS011;54904;54.350;18.664;2024-03-29T12:15:46;3.88;;;1.20;;
18320;SDS011;54904;54.350;18.664;2024-03-29T12:18:15;2.92;;;1.20;;
18320;SDS011;54904;54.350;18.664;2024-03-29T12:20:42;1.42;;;1.20;;
18320;SDS011;54904;54.350;18.664;2024-03-29T12:23:15;1.33;;;1.10;;
18320;SDS011;54904;54.350;18.664;2024-03-29T12:25:43;1.85;;;0.82;;
18320;SDS011;54904;54.350;18.664;2024-03-29T12:28:12;1.58;;;1.17;;
18320;SDS011;54904;54.350;18.664;2024-03-29T12:30:41;1.00;;;0.90;;
18320;SDS011;54904;54.350;18.664;2024-03-29T12:33:30;1.38;;;1.20;;
18320;SDS011;54904;54.350;18.664;2024-03-29T12:35:57;1.35;;;1.10;;
18320;SDS011;54904;54.350;18.664;2024-03-29T12:38:24;1.67;;;1.13;;
18320;SDS011;54904;54.350;18.664;2024-03-29T12:40:51;1.30;;;1.20;;
18320;SDS011;54904;54.350;18.664;2024-03-29T12:43:21;2.53;;;0.95;;
18320;SDS011;54904;54.350;18.664;2024-03-29T12:46:07;1.48;;;1.00;;
18320;SDS011;54904;54.350;18.664;2024-03-29T12:48:35;2.67;;;1.00;;
18320;SDS011;54904;54.350;18.664;2024-03-29T12:51:03;0.90;;;0.90;;
18320;SDS011;54904;54.350;18.664;2024-03-29T12:53:49;1.00;;;0.90;;
18320;SDS011;54904;54.350;18.664;2024-03-29T12:56:16;1.38;;;1.00;;
18320;SDS011;54904;54.350;18.664;2024-03-29T12:58:43;0.90;;;0.90;;
18320;SDS011;54904;54.350;18.664;2024-03-29T13:01:10;3.03;;;1.10;;
18320;SDS011;54904;54.350;18.664;2024-03-29T13:03:39;1.48;;;1.00;;
18320;SDS011;54904;54.350;18.664;2024-03-29T13:06:09;3.15;;;0.93;;
18320;SDS011;54904;54.350;18.664;2024-03-29T13:08:36;1.20;;;1.00;;
18320;SDS011;54904;54.350;18.664;2024-03-29T13:11:03;1.20;;;1.10;;
18320;SDS011;54904;54.350;18.664;2024-03-29T13:13:31;3.08;;;1.15;;
18320;SDS011;54904;54.350;18.664;2024-03-29T13:15:58;1.15;;;1.05;;
18320;SDS011;54904;54.350;18.664;2024-03-29T13:18:25;3.30;;;0.93;;
18320;SDS011;54904;54.350;18.664;2024-03-29T13:20:54;1.75;;;0.98;;
18320;SDS011;54904;54.350;18.664;2024-03-29T13:23:21;1.48;;;0.95;;
18320;SDS011;54904;54.350;18.664;2024-03-29T13:25:48;0.98;;;0.88;;
18320;SDS011;54904;54.350;18.664;2024-03-29T13:28:16;1.52;;;1.10;;
18320;SDS011;54904;54.350;18.664;2024-03-29T13:30:43;1.55;;;1.20;;
18320;SDS011;54904;54.350;18.664;2024-03-29T13:33:13;1.20;;;1.00;;
18320;SDS011;54904;54.350;18.664;2024-03-29T13:35:41;0.80;;;0.80;;
18320;SDS011;54904;54.350;18.664;2024-03-29T13:38:10;2.22;;;1.02;;
18320;SDS011;54904;54.350;18.664;2024-03-29T13:40:38;2.83;;;1.00;;
18320;SDS011;54904;54.350;18.664;2024-03-29T13:43:05;0.93;;;0.80;;
18320;SDS011;54904;54.350;18.664;2024-03-29T13:45:33;1.00;;;0.93;;
18320;SDS011;54904;54.350;18.664;2024-03-29T13:48:00;1.90;;;1.10;;
18320;SDS011;54904;54.350;18.664;2024-03-29T13:50:27;1.42;;;0.95;;
18320;SDS011;54904;54.350;18.664;2024-03-29T13:52:54;1.63;;;1.15;;
18320;SDS011;54904;54.350;18.664;2024-03-29T13:55:23;1.08;;;0.80;;
18320;SDS011;54904;54.350;18.664;2024-03-29T13:57:52;2.38;;;1.20;;
18320;SDS011;54904;54.350;18.664;2024-03-29T14:00:20;1.85;;;0.90;;
18320;SDS011;54904;54.350;18.664;2024-03-29T14:02:47;0.95;;;0.95;;
18320;SDS011;54904;54.350;18.664;2024-03-29T14:05:14;1.52;;;0.80;;
18320;SDS011;54904;54.350;18.664;2024-03-29T14:07:41;1.25;;;1.00;;
18320;SDS011;54904;54.350;18.664;2024-03-29T14:10:09;2.33;;;1.10;;
18320;SDS011;54904;54.350;18.664;2024-03-29T14:12:38;0.85;;;0.82;;
18320;SDS011;54904;54.350;18.664;2024-03-29T14:15:06;2.20;;;1.40;;
18320;SDS011;54904;54.350;18.664;2024-03-29T14:17:33;11.55;;;1.60;;
18320;SDS011;54904;54.350;18.664;2024-03-29T14:20:00;1.63;;;0.90;;
18320;SDS011;54904;54.350;18.664;2024-03-29T14:22:28;2.13;;;0.90;;
18320;SDS011;54904;54.350;18.664;2024-03-29T14:24:56;0.80;;;0.80;;
18320;SDS011;54904;54.350;18.664;2024-03-29T14:27:24;0.90;;;0.82;;
18320;SDS011;54904;54.350;18.664;2024-03-29T14:29:53;4.47;;;1.05;;
18320;SDS011;54904;54.350;18.664;2024-03-29T14:32:20;0.82;;;0.80;;
18320;SDS011;54904;54.350;18.664;2024-03-29T14:34:48;1.27;;;0.90;;
18320;SDS011;54904;54.350;18.664;2024-03-29T14:37:15;1.42;;;0.98;;
18320;SDS011;54904;54.350;18.664;2024-03-29T14:40:01;1.40;;;1.00;;
18320;SDS011;54904;54.350;18.664;2024-03-29T14:42:29;3.53;;;1.00;;
18320;SDS011;54904;54.350;18.664;2024-03-29T14:45:16;1.00;;;0.90;;
18320;SDS011;54904;54.350;18.664;2024-03-29T14:47:44;1.65;;;1.10;;
18320;SDS011;54904;54.350;18.664;2024-03-29T14:50:11;1.83;;;1.13;;
18320;SDS011;54904;54.350;18.664;2024-03-29T14:52:38;4.90;;;1.00;;
18320;SDS011;54904;54.350;18.664;2024-03-29T14:55:05;1.17;;;0.98;;
18320;SDS011;54904;54.350;18.664;2024-03-29T14:57:33;1.95;;;1.08;;
18320;SDS011;54904;54.350;18.664;2024-03-29T15:00:00;1.40;;;0.90;;
18320;SDS011;54904;54.350;18.664;2024-03-29T15:02:30;1.50;;;1.20;;
18320;SDS011;54904;54.350;18.664;2024-03-29T15:04:58;3.33;;;0.82;;